KMQB

Details ICAO KMQB
Name MACOMB MUNI
Region United States
Timezone America/Chicago (UTC-5.0)
Plans Departing 7
Arriving 4
Stats Elevation 707 ft / 215 m (AMSL)
Location 40.520145° -90.652498°
Runways 2
Magnetic Variation 1.422° W
Sunrise 2018-05-23 10:40:50 UTC / 2018-05-23 05:40:50 Local
Sunset 2018-05-24 01:20:47 UTC / 2018-05-23 20:20:47 Local
Advertisement - Login to hide

Runways

ID Width Length Bearing (true) Bearing (mag) Surface Threshold Offset Overrun Length
09 100 ft / 30 m 5,089 ft / 1,551 m 90.10° 91.52° Asphalt 0 ft / 0 m 0 ft / 0 m
18 190 ft / 58 m 3,725 ft / 1,136 m 180.09° 181.51° Grass 0 ft / 0 m 752 ft / 229 m
27 100 ft / 30 m 5,089 ft / 1,551 m 270.11° 271.53° Asphalt 0 ft / 0 m 0 ft / 0 m
36 190 ft / 58 m 3,725 ft / 1,136 m 0.09° 1.51° Grass 0 ft / 0 m 315 ft / 96 m

Map

Weather


0- 5 10 15 20 25 30 35+ Temperature / ° C

Clouds and Precipitation
Forecast for 2018-05-23 12:00 UTC. Updated 6 hours ago

Ground ~20,000 ft ~40,000 ft Winds

METAR

KMQB 231715Z AUTO 11006KT 10SM CLR 26/17 A3020 RMK AO2 T02600168

TAF

Not found

Frequencies

Recorded 119.02 MHz AWOS 3
Unicom 122.80 MHz CTAF/UNICOM
Warning: Do not use this data for real-world aviation or navigation. No guarantee of current accuracy is given.